sensor_id;sensor_type;location;lat;lon;timestamp;P1;durP1;ratioP1;P2;durP2;ratioP2
12129;SDS011;6128;59.340;18.040;2022-10-31T00:01:34;3.80;;;2.80;;
12129;SDS011;6128;59.340;18.040;2022-10-31T00:04:04;4.07;;;2.90;;
12129;SDS011;6128;59.340;18.040;2022-10-31T00:06:35;5.83;;;2.60;;
12129;SDS011;6128;59.340;18.040;2022-10-31T00:09:03;4.37;;;2.80;;
12129;SDS011;6128;59.340;18.040;2022-10-31T00:11:31;6.43;;;3.10;;
12129;SDS011;6128;59.340;18.040;2022-10-31T00:14:01;4.37;;;2.73;;
12129;SDS011;6128;59.340;18.040;2022-10-31T00:16:28;4.57;;;3.37;;
12129;SDS011;6128;59.340;18.040;2022-10-31T00:18:57;4.00;;;2.50;;
12129;SDS011;6128;59.340;18.040;2022-10-31T00:21:26;4.27;;;2.87;;
12129;SDS011;6128;59.340;18.040;2022-10-31T00:23:56;3.67;;;3.00;;
12129;SDS011;6128;59.340;18.040;2022-10-31T00:26:24;8.03;;;6.07;;
12129;SDS011;6128;59.340;18.040;2022-10-31T00:28:54;4.90;;;4.40;;
12129;SDS011;6128;59.340;18.040;2022-10-31T00:31:22;6.00;;;3.57;;
12129;SDS011;6128;59.340;18.040;2022-10-31T00:33:50;3.83;;;2.93;;
12129;SDS011;6128;59.340;18.040;2022-10-31T00:36:18;5.83;;;2.90;;
12129;SDS011;6128;59.340;18.040;2022-10-31T00:38:46;3.33;;;2.80;;
12129;SDS011;6128;59.340;18.040;2022-10-31T00:41:15;3.77;;;2.50;;
12129;SDS011;6128;59.340;18.040;2022-10-31T00:43:43;5.30;;;3.20;;
12129;SDS011;6128;59.340;18.040;2022-10-31T00:46:12;5.70;;;2.93;;
12129;SDS011;6128;59.340;18.040;2022-10-31T00:48:41;4.97;;;2.93;;
12129;SDS011;6128;59.340;18.040;2022-10-31T00:51:08;4.77;;;2.60;;
12129;SDS011;6128;59.340;18.040;2022-10-31T00:53:36;2.87;;;2.53;;
12129;SDS011;6128;59.340;18.040;2022-10-31T00:56:04;3.60;;;2.90;;
12129;SDS011;6128;59.340;18.040;2022-10-31T00:58:33;2.93;;;2.63;;
12129;SDS011;6128;59.340;18.040;2022-10-31T01:01:01;3.83;;;2.57;;
12129;SDS011;6128;59.340;18.040;2022-10-31T01:03:30;3.90;;;2.60;;
12129;SDS011;6128;59.340;18.040;2022-10-31T01:06:00;2.60;;;2.40;;
12129;SDS011;6128;59.340;18.040;2022-10-31T01:08:30;5.60;;;2.47;;
12129;SDS011;6128;59.340;18.040;2022-10-31T01:11:02;3.00;;;2.40;;
12129;SDS011;6128;59.340;18.040;2022-10-31T01:13:31;4.53;;;2.83;;
12129;SDS011;6128;59.340;18.040;2022-10-31T01:16:01;3.50;;;2.20;;
12129;SDS011;6128;59.340;18.040;2022-10-31T01:18:29;4.93;;;2.53;;
12129;SDS011;6128;59.340;18.040;2022-10-31T01:20:57;4.67;;;2.40;;
12129;SDS011;6128;59.340;18.040;2022-10-31T01:23:29;4.23;;;2.60;;
12129;SDS011;6128;59.340;18.040;2022-10-31T01:26:01;4.60;;;2.70;;
12129;SDS011;6128;59.340;18.040;2022-10-31T01:28:29;2.73;;;2.47;;
12129;SDS011;6128;59.340;18.040;2022-10-31T01:31:01;4.43;;;2.70;;
12129;SDS011;6128;59.340;18.040;2022-10-31T01:33:30;4.77;;;2.60;;
12129;SDS011;6128;59.340;18.040;2022-10-31T01:35:57;3.67;;;2.80;;
12129;SDS011;6128;59.340;18.040;2022-10-31T01:38:28;5.07;;;2.70;;
12129;SDS011;6128;59.340;18.040;2022-10-31T01:40:57;4.43;;;2.80;;
12129;SDS011;6128;59.340;18.040;2022-10-31T01:43:26;4.83;;;2.63;;
12129;SDS011;6128;59.340;18.040;2022-10-31T01:46:10;4.07;;;2.63;;
12129;SDS011;6128;59.340;18.040;2022-10-31T01:48:38;3.47;;;2.80;;
12129;SDS011;6128;59.340;18.040;2022-10-31T01:51:07;3.53;;;2.80;;
12129;SDS011;6128;59.340;18.040;2022-10-31T01:53:36;3.07;;;2.30;;
12129;SDS011;6128;59.340;18.040;2022-10-31T01:56:05;2.60;;;2.40;;
12129;SDS011;6128;59.340;18.040;2022-10-31T01:58:32;4.73;;;2.80;;
12129;SDS011;6128;59.340;18.040;2022-10-31T02:01:00;7.17;;;3.00;;
12129;SDS011;6128;59.340;18.040;2022-10-31T02:03:30;3.80;;;2.63;;
12129;SDS011;6128;59.340;18.040;2022-10-31T02:05:58;4.23;;;2.57;;
12129;SDS011;6128;59.340;18.040;2022-10-31T02:08:26;3.93;;;2.53;;
12129;SDS011;6128;59.340;18.040;2022-10-31T02:10:55;3.00;;;2.47;;
12129;SDS011;6128;59.340;18.040;2022-10-31T02:13:23;5.17;;;2.50;;
12129;SDS011;6128;59.340;18.040;2022-10-31T02:15:53;3.40;;;2.43;;
12129;SDS011;6128;59.340;18.040;2022-10-31T02:18:22;5.70;;;2.70;;
12129;SDS011;6128;59.340;18.040;2022-10-31T02:20:57;4.23;;;3.00;;
12129;SDS011;6128;59.340;18.040;2022-10-31T02:23:48;4.27;;;2.53;;
12129;SDS011;6128;59.340;18.040;2022-10-31T02:26:45;4.53;;;2.63;;
12129;SDS011;6128;59.340;18.040;2022-10-31T02:29:29;4.27;;;2.60;;
12129;SDS011;6128;59.340;18.040;2022-10-31T02:32:14;4.00;;;2.80;;
12129;SDS011;6128;59.340;18.040;2022-10-31T02:34:48;4.47;;;2.83;;
12129;SDS011;6128;59.340;18.040;2022-10-31T02:37:23;4.97;;;2.73;;
12129;SDS011;6128;59.340;18.040;2022-10-31T02:39:56;4.23;;;2.60;;
12129;SDS011;6128;59.340;18.040;2022-10-31T02:42:29;3.10;;;2.27;;
12129;SDS011;6128;59.340;18.040;2022-10-31T02:45:06;3.83;;;2.60;;
12129;SDS011;6128;59.340;18.040;2022-10-31T02:47:39;3.93;;;2.30;;
12129;SDS011;6128;59.340;18.040;2022-10-31T02:50:08;5.10;;;2.40;;
12129;SDS011;6128;59.340;18.040;2022-10-31T02:52:40;3.67;;;2.37;;
12129;SDS011;6128;59.340;18.040;2022-10-31T02:55:12;5.77;;;3.10;;
12129;SDS011;6128;59.340;18.040;2022-10-31T02:57:56;5.30;;;2.77;;
12129;SDS011;6128;59.340;18.040;2022-10-31T03:00:27;3.93;;;2.73;;
12129;SDS011;6128;59.340;18.040;2022-10-31T03:03:01;6.13;;;2.63;;
12129;SDS011;6128;59.340;18.040;2022-10-31T03:05:45;5.20;;;2.40;;
12129;SDS011;6128;59.340;18.040;2022-10-31T03:08:21;3.90;;;2.73;;
12129;SDS011;6128;59.340;18.040;2022-10-31T03:10:56;3.50;;;2.27;;
12129;SDS011;6128;59.340;18.040;2022-10-31T03:13:32;3.23;;;2.60;;
12129;SDS011;6128;59.340;18.040;2022-10-31T03:16:04;3.40;;;2.30;;
12129;SDS011;6128;59.340;18.040;2022-10-31T03:18:39;6.47;;;2.63;;
12129;SDS011;6128;59.340;18.040;2022-10-31T03:21:11;7.27;;;2.90;;
12129;SDS011;6128;59.340;18.040;2022-10-31T03:23:41;5.67;;;2.63;;
12129;SDS011;6128;59.340;18.040;2022-10-31T03:26:12;4.57;;;2.87;;
12129;SDS011;6128;59.340;18.040;2022-10-31T03:28:41;4.73;;;2.70;;
12129;SDS011;6128;59.340;18.040;2022-10-31T03:31:15;6.63;;;2.60;;
12129;SDS011;6128;59.340;18.040;2022-10-31T03:33:46;5.70;;;2.90;;
12129;SDS011;6128;59.340;18.040;2022-10-31T03:36:16;4.47;;;2.43;;
12129;SDS011;6128;59.340;18.040;2022-10-31T03:38:44;6.17;;;2.40;;
12129;SDS011;6128;59.340;18.040;2022-10-31T03:41:14;4.47;;;2.83;;
12129;SDS011;6128;59.340;18.040;2022-10-31T03:43:47;4.17;;;2.30;;
12129;SDS011;6128;59.340;18.040;2022-10-31T03:46:20;5.50;;;2.50;;
12129;SDS011;6128;59.340;18.040;2022-10-31T03:48:50;6.67;;;2.50;;
12129;SDS011;6128;59.340;18.040;2022-10-31T03:51:18;6.93;;;2.60;;
12129;SDS011;6128;59.340;18.040;2022-10-31T03:53:51;3.67;;;2.13;;
12129;SDS011;6128;59.340;18.040;2022-10-31T03:56:24;2.73;;;1.90;;
12129;SDS011;6128;59.340;18.040;2022-10-31T03:58:58;4.63;;;2.33;;
12129;SDS011;6128;59.340;18.040;2022-10-31T04:01:28;6.20;;;2.00;;
12129;SDS011;6128;59.340;18.040;2022-10-31T04:04:03;5.07;;;2.70;;
12129;SDS011;6128;59.340;18.040;2022-10-31T04:06:31;4.63;;;2.20;;
12129;SDS011;6128;59.340;18.040;2022-10-31T04:09:01;5.17;;;2.30;;
12129;SDS011;6128;59.340;18.040;2022-10-31T04:11:31;6.13;;;2.53;;
12129;SDS011;6128;59.340;18.040;2022-10-31T04:14:02;5.73;;;2.20;;
12129;SDS011;6128;59.340;18.040;2022-10-31T04:16:31;6.43;;;2.43;;
12129;SDS011;6128;59.340;18.040;2022-10-31T04:19:00;5.93;;;2.27;;
12129;SDS011;6128;59.340;18.040;2022-10-31T04:21:27;4.03;;;2.13;;
12129;SDS011;6128;59.340;18.040;2022-10-31T04:23:55;7.73;;;2.43;;
12129;SDS011;6128;59.340;18.040;2022-10-31T04:26:22;4.13;;;2.37;;
12129;SDS011;6128;59.340;18.040;2022-10-31T04:28:50;5.47;;;2.27;;
12129;SDS011;6128;59.340;18.040;2022-10-31T04:31:17;8.77;;;3.83;;
12129;SDS011;6128;59.340;18.040;2022-10-31T04:33:44;7.47;;;3.33;;
12129;SDS011;6128;59.340;18.040;2022-10-31T04:36:13;11.10;;;3.97;;
12129;SDS011;6128;59.340;18.040;2022-10-31T04:38:40;7.90;;;3.80;;
12129;SDS011;6128;59.340;18.040;2022-10-31T04:41:07;9.47;;;3.80;;
12129;SDS011;6128;59.340;18.040;2022-10-31T04:43:35;6.60;;;3.87;;
12129;SDS011;6128;59.340;18.040;2022-10-31T04:46:02;7.83;;;4.20;;
12129;SDS011;6128;59.340;18.040;2022-10-31T04:48:30;14.47;;;4.43;;
12129;SDS011;6128;59.340;18.040;2022-10-31T04:51:00;9.40;;;4.17;;
12129;SDS011;6128;59.340;18.040;2022-10-31T04:53:30;11.23;;;4.70;;
12129;SDS011;6128;59.340;18.040;2022-10-31T04:55:57;10.23;;;4.73;;
12129;SDS011;6128;59.340;18.040;2022-10-31T04:58:25;9.57;;;4.60;;
12129;SDS011;6128;59.340;18.040;2022-10-31T05:00:53;11.17;;;4.80;;
12129;SDS011;6128;59.340;18.040;2022-10-31T05:03:21;12.07;;;5.27;;
12129;SDS011;6128;59.340;18.040;2022-10-31T05:05:49;13.03;;;5.90;;
12129;SDS011;6128;59.340;18.040;2022-10-31T05:08:18;13.00;;;6.10;;
12129;SDS011;6128;59.340;18.040;2022-10-31T05:13:32;29.70;;;7.30;;
12129;SDS011;6128;59.340;18.040;2022-10-31T05:16:02;15.87;;;6.93;;
12129;SDS011;6128;59.340;18.040;2022-10-31T05:18:34;39.27;;;8.27;;
12129;SDS011;6128;59.340;18.040;2022-10-31T05:21:20;48.03;;;8.40;;
12129;SDS011;6128;59.340;18.040;2022-10-31T05:23:47;56.20;;;9.47;;
12129;SDS011;6128;59.340;18.040;2022-10-31T05:26:16;53.80;;;9.70;;
12129;SDS011;6128;59.340;18.040;2022-10-31T05:28:43;100.53;;;11.53;;
12129;SDS011;6128;59.340;18.040;2022-10-31T05:31:10;95.53;;;11.60;;
12129;SDS011;6128;59.340;18.040;2022-10-31T05:33:37;114.63;;;12.00;;
12129;SDS011;6128;59.340;18.040;2022-10-31T05:36:05;78.80;;;11.03;;
12129;SDS011;6128;59.340;18.040;2022-10-31T05:38:32;91.20;;;11.40;;
12129;SDS011;6128;59.340;18.040;2022-10-31T05:40:59;82.20;;;11.20;;
12129;SDS011;6128;59.340;18.040;2022-10-31T05:43:28;109.77;;;12.57;;
12129;SDS011;6128;59.340;18.040;2022-10-31T05:45:55;93.03;;;10.23;;
12129;SDS011;6128;59.340;18.040;2022-10-31T05:48:23;90.30;;;11.67;;
12129;SDS011;6128;59.340;18.040;2022-10-31T05:50:50;94.37;;;10.47;;
12129;SDS011;6128;59.340;18.040;2022-10-31T05:53:17;60.13;;;9.77;;
12129;SDS011;6128;59.340;18.040;2022-10-31T05:55:44;75.73;;;10.33;;
12129;SDS011;6128;59.340;18.040;2022-10-31T05:58:11;53.60;;;9.17;;
12129;SDS011;6128;59.340;18.040;2022-10-31T06:00:40;45.60;;;8.40;;
12129;SDS011;6128;59.340;18.040;2022-10-31T06:03:07;51.60;;;9.30;;
12129;SDS011;6128;59.340;18.040;2022-10-31T06:05:36;80.23;;;9.47;;
12129;SDS011;6128;59.340;18.040;2022-10-31T06:08:03;49.97;;;7.70;;
12129;SDS011;6128;59.340;18.040;2022-10-31T06:10:31;47.50;;;7.40;;
12129;SDS011;6128;59.340;18.040;2022-10-31T06:12:59;35.43;;;6.47;;
12129;SDS011;6128;59.340;18.040;2022-10-31T06:15:26;42.03;;;7.33;;
12129;SDS011;6128;59.340;18.040;2022-10-31T06:17:59;26.93;;;6.53;;
12129;SDS011;6128;59.340;18.040;2022-10-31T06:20:27;29.77;;;6.47;;
12129;SDS011;6128;59.340;18.040;2022-10-31T06:22:54;35.80;;;6.83;;
12129;SDS011;6128;59.340;18.040;2022-10-31T06:25:21;17.63;;;5.73;;
12129;SDS011;6128;59.340;18.040;2022-10-31T06:27:49;25.07;;;5.77;;
12129;SDS011;6128;59.340;18.040;2022-10-31T06:30:16;26.93;;;6.50;;
12129;SDS011;6128;59.340;18.040;2022-10-31T06:32:43;46.00;;;7.97;;
12129;SDS011;6128;59.340;18.040;2022-10-31T06:35:12;29.67;;;7.07;;
12129;SDS011;6128;59.340;18.040;2022-10-31T06:37:40;23.13;;;6.30;;
12129;SDS011;6128;59.340;18.040;2022-10-31T06:40:08;38.17;;;6.07;;
12129;SDS011;6128;59.340;18.040;2022-10-31T06:42:36;31.80;;;6.50;;
12129;SDS011;6128;59.340;18.040;2022-10-31T06:45:03;38.07;;;7.13;;
12129;SDS011;6128;59.340;18.040;2022-10-31T06:47:30;41.90;;;6.93;;
12129;SDS011;6128;59.340;18.040;2022-10-31T06:49:59;36.43;;;6.77;;
12129;SDS011;6128;59.340;18.040;2022-10-31T06:52:28;31.00;;;6.70;;
12129;SDS011;6128;59.340;18.040;2022-10-31T06:54:55;33.00;;;7.20;;
12129;SDS011;6128;59.340;18.040;2022-10-31T06:57:22;29.03;;;7.27;;
12129;SDS011;6128;59.340;18.040;2022-10-31T06:59:49;28.43;;;7.07;;
12129;SDS011;6128;59.340;18.040;2022-10-31T07:02:16;30.57;;;7.77;;
12129;SDS011;6128;59.340;18.040;2022-10-31T07:04:43;27.90;;;7.27;;
12129;SDS011;6128;59.340;18.040;2022-10-31T07:07:10;26.87;;;7.10;;
12129;SDS011;6128;59.340;18.040;2022-10-31T07:09:39;21.07;;;7.43;;
12129;SDS011;6128;59.340;18.040;2022-10-31T07:12:07;22.00;;;7.73;;
12129;SDS011;6128;59.340;18.040;2022-10-31T07:14:34;22.77;;;8.00;;
12129;SDS011;6128;59.340;18.040;2022-10-31T07:17:01;18.13;;;8.10;;
12129;SDS011;6128;59.340;18.040;2022-10-31T07:19:32;30.33;;;9.00;;
12129;SDS011;6128;59.340;18.040;2022-10-31T07:21:59;22.17;;;8.47;;
12129;SDS011;6128;59.340;18.040;2022-10-31T07:24:26;33.43;;;9.70;;
12129;SDS011;6128;59.340;18.040;2022-10-31T07:26:55;33.13;;;9.73;;
12129;SDS011;6128;59.340;18.040;2022-10-31T07:29:22;35.40;;;9.53;;
12129;SDS011;6128;59.340;18.040;2022-10-31T07:31:49;36.17;;;9.60;;
12129;SDS011;6128;59.340;18.040;2022-10-31T07:34:16;28.03;;;9.30;;
12129;SDS011;6128;59.340;18.040;2022-10-31T07:36:44;28.37;;;7.97;;
12129;SDS011;6128;59.340;18.040;2022-10-31T07:39:11;25.93;;;9.00;;
12129;SDS011;6128;59.340;18.040;2022-10-31T07:41:40;25.07;;;9.57;;
12129;SDS011;6128;59.340;18.040;2022-10-31T07:44:09;26.17;;;10.03;;
12129;SDS011;6128;59.340;18.040;2022-10-31T07:46:36;24.80;;;10.00;;
12129;SDS011;6128;59.340;18.040;2022-10-31T07:49:07;25.63;;;10.73;;
12129;SDS011;6128;59.340;18.040;2022-10-31T07:51:34;23.53;;;10.93;;
12129;SDS011;6128;59.340;18.040;2022-10-31T07:54:01;24.67;;;10.93;;
12129;SDS011;6128;59.340;18.040;2022-10-31T07:56:28;27.87;;;11.30;;
12129;SDS011;6128;59.340;18.040;2022-10-31T07:58:56;25.27;;;10.77;;
12129;SDS011;6128;59.340;18.040;2022-10-31T08:01:25;25.13;;;11.07;;
12129;SDS011;6128;59.340;18.040;2022-10-31T08:03:52;19.97;;;10.27;;
12129;SDS011;6128;59.340;18.040;2022-10-31T08:06:25;23.00;;;11.47;;
12129;SDS011;6128;59.340;18.040;2022-10-31T08:08:59;20.37;;;9.70;;
12129;SDS011;6128;59.340;18.040;2022-10-31T08:11:26;19.20;;;9.07;;
12129;SDS011;6128;59.340;18.040;2022-10-31T08:13:53;19.07;;;8.63;;
12129;SDS011;6128;59.340;18.040;2022-10-31T08:16:20;15.27;;;8.23;;
12129;SDS011;6128;59.340;18.040;2022-10-31T08:18:49;12.87;;;7.50;;
12129;SDS011;6128;59.340;18.040;2022-10-31T08:21:16;16.70;;;8.17;;
12129;SDS011;6128;59.340;18.040;2022-10-31T08:23:43;16.37;;;8.37;;
12129;SDS011;6128;59.340;18.040;2022-10-31T08:26:10;13.60;;;7.47;;
12129;SDS011;6128;59.340;18.040;2022-10-31T08:28:38;15.73;;;7.77;;
12129;SDS011;6128;59.340;18.040;2022-10-31T08:31:05;12.10;;;7.10;;
12129;SDS011;6128;59.340;18.040;2022-10-31T08:33:32;16.93;;;6.73;;
12129;SDS011;6128;59.340;18.040;2022-10-31T08:36:02;13.77;;;6.80;;
12129;SDS011;6128;59.340;18.040;2022-10-31T08:38:30;14.60;;;8.10;;
12129;SDS011;6128;59.340;18.040;2022-10-31T08:40:57;16.43;;;8.50;;
12129;SDS011;6128;59.340;18.040;2022-10-31T08:43:25;12.83;;;7.50;;
12129;SDS011;6128;59.340;18.040;2022-10-31T08:45:53;14.07;;;7.73;;
12129;SDS011;6128;59.340;18.040;2022-10-31T08:48:20;13.20;;;7.67;;
12129;SDS011;6128;59.340;18.040;2022-10-31T08:50:48;12.07;;;6.90;;
12129;SDS011;6128;59.340;18.040;2022-10-31T08:53:17;10.87;;;6.67;;
12129;SDS011;6128;59.340;18.040;2022-10-31T08:55:47;12.00;;;7.93;;
12129;SDS011;6128;59.340;18.040;2022-10-31T08:58:15;13.47;;;7.60;;
12129;SDS011;6128;59.340;18.040;2022-10-31T09:00:43;10.67;;;7.00;;
12129;SDS011;6128;59.340;18.040;2022-10-31T09:03:12;10.70;;;7.07;;
12129;SDS011;6128;59.340;18.040;2022-10-31T09:05:41;10.47;;;6.83;;
12129;SDS011;6128;59.340;18.040;2022-10-31T09:08:10;10.87;;;6.53;;
12129;SDS011;6128;59.340;18.040;2022-10-31T09:10:39;8.00;;;6.53;;
12129;SDS011;6128;59.340;18.040;2022-10-31T09:13:07;9.80;;;6.80;;
12129;SDS011;6128;59.340;18.040;2022-10-31T09:15:38;8.43;;;6.07;;
12129;SDS011;6128;59.340;18.040;2022-10-31T09:18:09;8.27;;;6.40;;
12129;SDS011;6128;59.340;18.040;2022-10-31T09:20:37;8.13;;;6.57;;
12129;SDS011;6128;59.340;18.040;2022-10-31T09:23:06;9.67;;;6.97;;
12129;SDS011;6128;59.340;18.040;2022-10-31T09:25:35;7.83;;;6.33;;
12129;SDS011;6128;59.340;18.040;2022-10-31T09:28:06;7.40;;;6.33;;
12129;SDS011;6128;59.340;18.040;2022-10-31T09:30:35;7.87;;;6.30;;
12129;SDS011;6128;59.340;18.040;2022-10-31T09:33:04;8.50;;;6.07;;
12129;SDS011;6128;59.340;18.040;2022-10-31T09:35:32;7.93;;;6.60;;
12129;SDS011;6128;59.340;18.040;2022-10-31T09:38:00;7.13;;;6.10;;
12129;SDS011;6128;59.340;18.040;2022-10-31T09:40:30;6.47;;;5.80;;
12129;SDS011;6128;59.340;18.040;2022-10-31T09:43:03;7.23;;;5.73;;
12129;SDS011;6128;59.340;18.040;2022-10-31T09:45:41;6.23;;;5.63;;
12129;SDS011;6128;59.340;18.040;2022-10-31T09:51:08;6.37;;;5.50;;
12129;SDS011;6128;59.340;18.040;2022-10-31T09:53:39;9.30;;;5.73;;
12129;SDS011;6128;59.340;18.040;2022-10-31T09:56:10;7.57;;;6.07;;
12129;SDS011;6128;59.340;18.040;2022-10-31T09:58:42;7.07;;;5.70;;
12129;SDS011;6128;59.340;18.040;2022-10-31T10:01:16;6.57;;;5.97;;
12129;SDS011;6128;59.340;18.040;2022-10-31T10:03:54;6.97;;;5.43;;
12129;SDS011;6128;59.340;18.040;2022-10-31T10:06:26;6.77;;;6.00;;
12129;SDS011;6128;59.340;18.040;2022-10-31T10:08:56;6.67;;;5.97;;
12129;SDS011;6128;59.340;18.040;2022-10-31T10:11:31;8.30;;;7.00;;
12129;SDS011;6128;59.340;18.040;2022-10-31T10:14:18;7.33;;;6.17;;
12129;SDS011;6128;59.340;18.040;2022-10-31T10:16:57;6.63;;;5.70;;
12129;SDS011;6128;59.340;18.040;2022-10-31T10:19:41;8.40;;;6.00;;
12129;SDS011;6128;59.340;18.040;2022-10-31T10:22:25;6.90;;;5.93;;
12129;SDS011;6128;59.340;18.040;2022-10-31T10:25:04;6.10;;;5.50;;
12129;SDS011;6128;59.340;18.040;2022-10-31T10:27:54;7.23;;;6.00;;
12129;SDS011;6128;59.340;18.040;2022-10-31T10:30:29;7.77;;;5.70;;
12129;SDS011;6128;59.340;18.040;2022-10-31T10:33:02;7.87;;;6.40;;
12129;SDS011;6128;59.340;18.040;2022-10-31T10:35:38;8.50;;;6.93;;
12129;SDS011;6128;59.340;18.040;2022-10-31T10:38:11;6.83;;;6.13;;
12129;SDS011;6128;59.340;18.040;2022-10-31T10:40:43;6.83;;;6.00;;
12129;SDS011;6128;59.340;18.040;2022-10-31T10:43:19;8.97;;;6.33;;
12129;SDS011;6128;59.340;18.040;2022-10-31T10:45:55;6.93;;;5.80;;
12129;SDS011;6128;59.340;18.040;2022-10-31T10:48:49;6.93;;;6.20;;
12129;SDS011;6128;59.340;18.040;2022-10-31T10:51:23;7.77;;;6.73;;
12129;SDS011;6128;59.340;18.040;2022-10-31T10:54:03;6.80;;;6.00;;
12129;SDS011;6128;59.340;18.040;2022-10-31T10:56:45;7.33;;;6.63;;
12129;SDS011;6128;59.340;18.040;2022-10-31T10:59:20;7.13;;;5.97;;
12129;SDS011;6128;59.340;18.040;2022-10-31T11:01:51;6.73;;;6.03;;
12129;SDS011;6128;59.340;18.040;2022-10-31T11:04:29;8.03;;;6.53;;
12129;SDS011;6128;59.340;18.040;2022-10-31T11:06:59;6.77;;;5.97;;
12129;SDS011;6128;59.340;18.040;2022-10-31T11:09:26;8.40;;;5.80;;
12129;SDS011;6128;59.340;18.040;2022-10-31T11:11:54;7.30;;;6.60;;
12129;SDS011;6128;59.340;18.040;2022-10-31T11:14:23;7.97;;;6.50;;
12129;SDS011;6128;59.340;18.040;2022-10-31T11:16:54;6.77;;;6.17;;
12129;SDS011;6128;59.340;18.040;2022-10-31T11:19:33;6.60;;;6.00;;
12129;SDS011;6128;59.340;18.040;2022-10-31T11:22:05;6.27;;;5.77;;
12129;SDS011;6128;59.340;18.040;2022-10-31T11:24:36;7.07;;;6.37;;
12129;SDS011;6128;59.340;18.040;2022-10-31T11:27:13;6.30;;;5.70;;
12129;SDS011;6128;59.340;18.040;2022-10-31T11:29:41;7.03;;;6.30;;
12129;SDS011;6128;59.340;18.040;2022-10-31T11:32:16;7.57;;;6.87;;
12129;SDS011;6128;59.340;18.040;2022-10-31T11:34:47;7.53;;;6.50;;
12129;SDS011;6128;59.340;18.040;2022-10-31T11:37:18;7.87;;;5.90;;
12129;SDS011;6128;59.340;18.040;2022-10-31T11:39:49;6.97;;;6.27;;
12129;SDS011;6128;59.340;18.040;2022-10-31T11:42:20;8.67;;;6.67;;
12129;SDS011;6128;59.340;18.040;2022-10-31T11:44:49;6.30;;;5.70;;
12129;SDS011;6128;59.340;18.040;2022-10-31T11:47:23;5.53;;;5.10;;
12129;SDS011;6128;59.340;18.040;2022-10-31T11:49:53;6.07;;;5.47;;
12129;SDS011;6128;59.340;18.040;2022-10-31T11:52:23;5.93;;;5.33;;
12129;SDS011;6128;59.340;18.040;2022-10-31T11:54:54;5.73;;;5.23;;
12129;SDS011;6128;59.340;18.040;2022-10-31T11:57:25;5.70;;;5.20;;
12129;SDS011;6128;59.340;18.040;2022-10-31T11:59:54;7.17;;;5.47;;
12129;SDS011;6128;59.340;18.040;2022-10-31T12:02:24;5.97;;;5.37;;
12129;SDS011;6128;59.340;18.040;2022-10-31T12:04:55;6.70;;;6.00;;
12129;SDS011;6128;59.340;18.040;2022-10-31T12:07:27;5.90;;;5.30;;
12129;SDS011;6128;59.340;18.040;2022-10-31T12:09:54;5.70;;;5.10;;
12129;SDS011;6128;59.340;18.040;2022-10-31T12:12:29;5.63;;;4.63;;
12129;SDS011;6128;59.340;18.040;2022-10-31T12:15:15;5.37;;;4.87;;
12129;SDS011;6128;59.340;18.040;2022-10-31T12:18:00;5.77;;;5.13;;
12129;SDS011;6128;59.340;18.040;2022-10-31T12:20:44;6.97;;;5.03;;
12129;SDS011;6128;59.340;18.040;2022-10-31T12:23:23;6.70;;;5.13;;
12129;SDS011;6128;59.340;18.040;2022-10-31T12:26:00;7.93;;;5.93;;
12129;SDS011;6128;59.340;18.040;2022-10-31T12:28:41;5.87;;;4.40;;
12129;SDS011;6128;59.340;18.040;2022-10-31T12:31:38;7.60;;;5.00;;
12129;SDS011;6128;59.340;18.040;2022-10-31T12:34:23;6.43;;;5.83;;
12129;SDS011;6128;59.340;18.040;2022-10-31T12:37:13;6.23;;;5.13;;
12129;SDS011;6128;59.340;18.040;2022-10-31T12:39:49;6.63;;;5.17;;
12129;SDS011;6128;59.340;18.040;2022-10-31T12:42:34;5.73;;;5.10;;
12129;SDS011;6128;59.340;18.040;2022-10-31T12:45:18;5.40;;;4.67;;
12129;SDS011;6128;59.340;18.040;2022-10-31T12:48:07;7.93;;;4.90;;
12129;SDS011;6128;59.340;18.040;2022-10-31T12:50:52;7.87;;;4.90;;
12129;SDS011;6128;59.340;18.040;2022-10-31T12:53:32;5.20;;;4.37;;
12129;SDS011;6128;59.340;18.040;2022-10-31T12:56:15;4.70;;;4.20;;
12129;SDS011;6128;59.340;18.040;2022-10-31T12:58:56;5.63;;;4.67;;
12129;SDS011;6128;59.340;18.040;2022-10-31T13:01:32;8.53;;;4.60;;
12129;SDS011;6128;59.340;18.040;2022-10-31T13:04:02;6.77;;;5.03;;
12129;SDS011;6128;59.340;18.040;2022-10-31T13:06:39;5.47;;;4.43;;
12129;SDS011;6128;59.340;18.040;2022-10-31T13:09:10;6.37;;;4.30;;
12129;SDS011;6128;59.340;18.040;2022-10-31T13:11:42;5.17;;;4.23;;
12129;SDS011;6128;59.340;18.040;2022-10-31T13:14:14;5.97;;;4.33;;
12129;SDS011;6128;59.340;18.040;2022-10-31T13:16:49;4.73;;;4.10;;
12129;SDS011;6128;59.340;18.040;2022-10-31T13:19:18;5.77;;;4.20;;
12129;SDS011;6128;59.340;18.040;2022-10-31T13:21:53;6.13;;;5.07;;
12129;SDS011;6128;59.340;18.040;2022-10-31T13:24:28;5.27;;;4.07;;
12129;SDS011;6128;59.340;18.040;2022-10-31T13:27:09;7.97;;;4.53;;
12129;SDS011;6128;59.340;18.040;2022-10-31T13:29:42;7.13;;;4.23;;
12129;SDS011;6128;59.340;18.040;2022-10-31T13:32:16;5.57;;;4.37;;
12129;SDS011;6128;59.340;18.040;2022-10-31T13:34:44;7.70;;;4.20;;
12129;SDS011;6128;59.340;18.040;2022-10-31T13:37:21;5.90;;;4.80;;
12129;SDS011;6128;59.340;18.040;2022-10-31T13:40:09;5.30;;;4.23;;
12129;SDS011;6128;59.340;18.040;2022-10-31T13:42:48;5.83;;;4.10;;
12129;SDS011;6128;59.340;18.040;2022-10-31T13:45:24;5.23;;;4.20;;
12129;SDS011;6128;59.340;18.040;2022-10-31T13:47:56;5.97;;;4.37;;
12129;SDS011;6128;59.340;18.040;2022-10-31T13:50:26;4.83;;;4.17;;
12129;SDS011;6128;59.340;18.040;2022-10-31T13:55:49;7.67;;;4.53;;
12129;SDS011;6128;59.340;18.040;2022-10-31T13:58:24;5.47;;;4.27;;
12129;SDS011;6128;59.340;18.040;2022-10-31T14:01:04;7.60;;;4.57;;
12129;SDS011;6128;59.340;18.040;2022-10-31T14:03:42;6.30;;;4.20;;
12129;SDS011;6128;59.340;18.040;2022-10-31T14:06:11;6.00;;;4.37;;
12129;SDS011;6128;59.340;18.040;2022-10-31T14:08:46;5.80;;;4.33;;
12129;SDS011;6128;59.340;18.040;2022-10-31T14:11:18;5.07;;;4.47;;
12129;SDS011;6128;59.340;18.040;2022-10-31T14:13:49;5.13;;;4.30;;
12129;SDS011;6128;59.340;18.040;2022-10-31T14:16:20;6.03;;;3.93;;
12129;SDS011;6128;59.340;18.040;2022-10-31T14:18:51;5.83;;;4.10;;
12129;SDS011;6128;59.340;18.040;2022-10-31T14:21:37;5.37;;;3.70;;
12129;SDS011;6128;59.340;18.040;2022-10-31T14:24:14;4.80;;;4.30;;
12129;SDS011;6128;59.340;18.040;2022-10-31T14:26:57;5.07;;;4.50;;
12129;SDS011;6128;59.340;18.040;2022-10-31T14:29:26;5.87;;;4.17;;
12129;SDS011;6128;59.340;18.040;2022-10-31T14:31:59;3.80;;;3.50;;
12129;SDS011;6128;59.340;18.040;2022-10-31T14:34:36;4.23;;;3.50;;
12129;SDS011;6128;59.340;18.040;2022-10-31T14:37:20;7.27;;;4.80;;
12129;SDS011;6128;59.340;18.040;2022-10-31T14:40:06;5.23;;;3.70;;
12129;SDS011;6128;59.340;18.040;2022-10-31T14:45:55;4.27;;;3.37;;
12129;SDS011;6128;59.340;18.040;2022-10-31T14:51:26;5.20;;;3.70;;
12129;SDS011;6128;59.340;18.040;2022-10-31T14:54:12;4.07;;;3.43;;
12129;SDS011;6128;59.340;18.040;2022-10-31T14:56:46;8.27;;;3.70;;
12129;SDS011;6128;59.340;18.040;2022-10-31T14:59:18;4.67;;;3.80;;
12129;SDS011;6128;59.340;18.040;2022-10-31T15:01:55;5.67;;;4.13;;
12129;SDS011;6128;59.340;18.040;2022-10-31T15:04:24;4.30;;;3.83;;
12129;SDS011;6128;59.340;18.040;2022-10-31T15:06:54;5.10;;;3.73;;
12129;SDS011;6128;59.340;18.040;2022-10-31T15:09:27;7.17;;;4.10;;
12129;SDS011;6128;59.340;18.040;2022-10-31T15:11:59;4.03;;;3.40;;
12129;SDS011;6128;59.340;18.040;2022-10-31T15:14:27;4.70;;;3.03;;
12129;SDS011;6128;59.340;18.040;2022-10-31T15:16:57;4.10;;;3.10;;
12129;SDS011;6128;59.340;18.040;2022-10-31T15:19:27;5.50;;;3.47;;
12129;SDS011;6128;59.340;18.040;2022-10-31T15:21:57;4.03;;;3.07;;
12129;SDS011;6128;59.340;18.040;2022-10-31T15:24:26;5.10;;;3.87;;